sensor_id;sensor_type;location;lat;lon;timestamp;pressure;altitude;pressure_sealevel;temperature;humidity
30614;BME280;17381;51.690;5.270;2023-03-14T00:01:58;98905.97;;;11.50;71.95
30614;BME280;17381;51.690;5.270;2023-03-14T00:04:33;98905.78;;;11.53;71.52
30614;BME280;17381;51.690;5.270;2023-03-14T00:07:04;98896.41;;;11.49;71.25
30614;BME280;17381;51.690;5.270;2023-03-14T00:09:35;98918.78;;;11.56;71.22
30614;BME280;17381;51.690;5.270;2023-03-14T00:12:09;98913.31;;;11.60;71.31
30614;BME280;17381;51.690;5.270;2023-03-14T00:14:34;98899.41;;;11.57;71.38
30614;BME280;17381;51.690;5.270;2023-03-14T00:17:06;98907.50;;;11.54;71.48
30614;BME280;17381;51.690;5.270;2023-03-14T00:20:04;98911.81;;;11.55;71.10
30614;BME280;17381;51.690;5.270;2023-03-14T00:22:43;98908.41;;;11.53;71.08
30614;BME280;17381;51.690;5.270;2023-03-14T00:25:11;98899.59;;;11.54;70.40
30614;BME280;17381;51.690;5.270;2023-03-14T00:27:40;98910.97;;;11.55;70.13
30614;BME280;17381;51.690;5.270;2023-03-14T00:30:16;98909.19;;;11.55;69.63
30614;BME280;17381;51.690;5.270;2023-03-14T00:32:42;98914.63;;;11.52;69.63
30614;BME280;17381;51.690;5.270;2023-03-14T00:35:15;98917.06;;;11.55;69.79
30614;BME280;17381;51.690;5.270;2023-03-14T00:37:53;98918.94;;;11.53;69.30
30614;BME280;17381;51.690;5.270;2023-03-14T00:40:22;98928.34;;;11.57;69.12
30614;BME280;17381;51.690;5.270;2023-03-14T00:42:48;98935.28;;;11.58;68.77
30614;BME280;17381;51.690;5.270;2023-03-14T00:45:14;98929.31;;;11.56;69.05
30614;BME280;17381;51.690;5.270;2023-03-14T00:47:55;98902.03;;;11.43;69.37
30614;BME280;17381;51.690;5.270;2023-03-14T00:50:27;98913.03;;;11.50;69.89
30614;BME280;17381;51.690;5.270;2023-03-14T00:53:01;98883.25;;;11.35;69.88
30614;BME280;17381;51.690;5.270;2023-03-14T00:55:46;98918.22;;;11.51;69.93
30614;BME280;17381;51.690;5.270;2023-03-14T00:58:19;98907.28;;;11.43;69.69
30614;BME280;17381;51.690;5.270;2023-03-14T01:00:51;98914.81;;;11.35;69.74
30614;BME280;17381;51.690;5.270;2023-03-14T01:03:28;98861.22;;;10.93;69.57
30614;BME280;17381;51.690;5.270;2023-03-14T01:06:13;98925.72;;;11.29;69.24
30614;BME280;17381;51.690;5.270;2023-03-14T01:08:45;98927.56;;;11.27;69.11
30614;BME280;17381;51.690;5.270;2023-03-14T01:11:31;98928.34;;;11.29;68.76
30614;BME280;17381;51.690;5.270;2023-03-14T01:14:04;98927.56;;;11.27;68.74
30614;BME280;17381;51.690;5.270;2023-03-14T01:16:39;98902.31;;;11.24;68.82
30614;BME280;17381;51.690;5.270;2023-03-14T01:19:06;98904.28;;;11.21;68.70
30614;BME280;17381;51.690;5.270;2023-03-14T01:21:33;98879.63;;;11.07;68.62
30614;BME280;17381;51.690;5.270;2023-03-14T01:24:02;98925.72;;;11.29;68.69
30614;BME280;17381;51.690;5.270;2023-03-14T01:26:37;98924.00;;;11.28;68.82
30614;BME280;17381;51.690;5.270;2023-03-14T01:29:13;98918.00;;;11.26;69.77
30614;BME280;17381;51.690;5.270;2023-03-14T01:31:42;98920.66;;;10.96;72.20
30614;BME280;17381;51.690;5.270;2023-03-14T01:34:15;98911.25;;;10.61;73.84
30614;BME280;17381;51.690;5.270;2023-03-14T01:36:44;98918.22;;;10.46;75.71
30614;BME280;17381;51.690;5.270;2023-03-14T01:39:14;98930.34;;;10.33;76.59
30614;BME280;17381;51.690;5.270;2023-03-14T01:41:41;98912.03;;;10.16;78.04
30614;BME280;17381;51.690;5.270;2023-03-14T01:44:11;98892.13;;;9.96;78.94
30614;BME280;17381;51.690;5.270;2023-03-14T01:46:47;98909.72;;;9.94;79.55
30614;BME280;17381;51.690;5.270;2023-03-14T01:49:27;98920.41;;;9.91;79.56
30614;BME280;17381;51.690;5.270;2023-03-14T01:55:13;98904.16;;;9.84;80.08
30614;BME280;17381;51.690;5.270;2023-03-14T01:57:47;98862.22;;;9.51;80.74
30614;BME280;17381;51.690;5.270;2023-03-14T02:00:21;98907.97;;;9.78;80.70
30614;BME280;17381;51.690;5.270;2023-03-14T02:02:58;98894.75;;;9.80;80.21
30614;BME280;17381;51.690;5.270;2023-03-14T02:05:32;98890.50;;;9.77;80.75
30614;BME280;17381;51.690;5.270;2023-03-14T02:08:10;98894.25;;;9.73;80.72
30614;BME280;17381;51.690;5.270;2023-03-14T02:10:50;98903.97;;;9.71;81.54
30614;BME280;17381;51.690;5.270;2023-03-14T02:13:26;98882.56;;;9.63;82.14
30614;BME280;17381;51.690;5.270;2023-03-14T02:16:14;98884.41;;;9.61;82.31
30614;BME280;17381;51.690;5.270;2023-03-14T02:19:14;98876.78;;;9.56;82.30
30614;BME280;17381;51.690;5.270;2023-03-14T02:22:11;98886.44;;;9.56;82.76
30614;BME280;17381;51.690;5.270;2023-03-14T02:28:05;98875.09;;;9.55;82.69
30614;BME280;17381;51.690;5.270;2023-03-14T02:30:33;98856.22;;;9.49;82.02
30614;BME280;17381;51.690;5.270;2023-03-14T02:33:13;98862.06;;;9.54;82.52
30614;BME280;17381;51.690;5.270;2023-03-14T02:38:31;98865.09;;;9.62;81.56
30614;BME280;17381;51.690;5.270;2023-03-14T02:41:06;98864.94;;;9.65;81.67
30614;BME280;17381;51.690;5.270;2023-03-14T02:43:54;98860.03;;;9.75;81.52
30614;BME280;17381;51.690;5.270;2023-03-14T02:46:30;98865.88;;;9.80;80.66
30614;BME280;17381;51.690;5.270;2023-03-14T02:49:10;98857.25;;;9.94;79.82
30614;BME280;17381;51.690;5.270;2023-03-14T02:51:47;98850.91;;;9.98;79.53
30614;BME280;17381;51.690;5.270;2023-03-14T02:54:24;98858.34;;;10.05;79.15
30614;BME280;17381;51.690;5.270;2023-03-14T02:56:53;98844.38;;;10.05;78.86
30614;BME280;17381;51.690;5.270;2023-03-14T02:59:22;98848.25;;;10.14;78.65
30614;BME280;17381;51.690;5.270;2023-03-14T03:01:59;98802.50;;;9.88;78.53
30614;BME280;17381;51.690;5.270;2023-03-14T03:04:28;98849.69;;;10.19;78.36
30614;BME280;17381;51.690;5.270;2023-03-14T03:07:02;98851.22;;;10.23;78.00
30614;BME280;17381;51.690;5.270;2023-03-14T03:09:28;98844.53;;;10.18;77.68
30614;BME280;17381;51.690;5.270;2023-03-14T03:12:03;98835.47;;;10.23;77.90
30614;BME280;17381;51.690;5.270;2023-03-14T03:14:38;98853.66;;;10.26;77.47
30614;BME280;17381;51.690;5.270;2023-03-14T03:17:09;98842.28;;;10.28;77.24
30614;BME280;17381;51.690;5.270;2023-03-14T03:19:35;98842.09;;;10.31;77.30
30614;BME280;17381;51.690;5.270;2023-03-14T03:22:04;98844.72;;;10.31;77.05
30614;BME280;17381;51.690;5.270;2023-03-14T03:24:31;98808.22;;;10.10;77.34
30614;BME280;17381;51.690;5.270;2023-03-14T03:27:00;98844.91;;;10.28;76.88
30614;BME280;17381;51.690;5.270;2023-03-14T03:29:31;98849.22;;;10.29;77.29
30614;BME280;17381;51.690;5.270;2023-03-14T03:32:00;98840.25;;;10.33;76.62
30614;BME280;17381;51.690;5.270;2023-03-14T03:34:27;98837.69;;;10.31;76.96
30614;BME280;17381;51.690;5.270;2023-03-14T03:36:57;98795.09;;;10.10;76.45
30614;BME280;17381;51.690;5.270;2023-03-14T03:39:35;98841.75;;;10.37;76.49
30614;BME280;17381;51.690;5.270;2023-03-14T03:42:07;98787.56;;;10.04;76.42
30614;BME280;17381;51.690;5.270;2023-03-14T03:44:36;98828.53;;;10.38;76.45
30614;BME280;17381;51.690;5.270;2023-03-14T03:47:08;98836.47;;;10.37;76.07
30614;BME280;17381;51.690;5.270;2023-03-14T03:49:37;98831.41;;;10.34;76.51
30614;BME280;17381;51.690;5.270;2023-03-14T03:52:04;98825.06;;;10.38;76.17
30614;BME280;17381;51.690;5.270;2023-03-14T03:54:39;98839.88;;;10.39;75.77
30614;BME280;17381;51.690;5.270;2023-03-14T03:57:16;98844.19;;;10.40;75.88
30614;BME280;17381;51.690;5.270;2023-03-14T03:59:49;98805.63;;;10.24;75.74
30614;BME280;17381;51.690;5.270;2023-03-14T04:02:25;98833.69;;;10.40;75.88
30614;BME280;17381;51.690;5.270;2023-03-14T04:05:05;98824.97;;;10.39;75.91
30614;BME280;17381;51.690;5.270;2023-03-14T04:11:30;98827.84;;;10.35;75.56
30614;BME280;17381;51.690;5.270;2023-03-14T04:14:31;98786.72;;;10.03;75.90
30614;BME280;17381;51.690;5.270;2023-03-14T04:17:11;98825.63;;;10.27;75.80
30614;BME280;17381;51.690;5.270;2023-03-14T04:19:43;98828.72;;;10.35;75.74
30614;BME280;17381;51.690;5.270;2023-03-14T04:22:22;98829.44;;;10.37;75.89
30614;BME280;17381;51.690;5.270;2023-03-14T04:24:56;98829.38;;;10.39;75.97
30614;BME280;17381;51.690;5.270;2023-03-14T04:27:35;98831.16;;;10.38;76.14
30614;BME280;17381;51.690;5.270;2023-03-14T04:30:08;98821.31;;;10.26;76.98
30614;BME280;17381;51.690;5.270;2023-03-14T04:32:56;98815.16;;;10.11;77.42
30614;BME280;17381;51.690;5.270;2023-03-14T04:35:29;98820.59;;;10.08;78.12
30614;BME280;17381;51.690;5.270;2023-03-14T04:38:09;98815.16;;;10.11;77.65
30614;BME280;17381;51.690;5.270;2023-03-14T04:40:44;98828.38;;;10.10;77.72
30614;BME280;17381;51.690;5.270;2023-03-14T04:43:18;98819.75;;;10.08;78.37
30614;BME280;17381;51.690;5.270;2023-03-14T04:46:00;98809.69;;;10.00;78.27
30614;BME280;17381;51.690;5.270;2023-03-14T04:48:27;98812.72;;;10.08;78.53
30614;BME280;17381;51.690;5.270;2023-03-14T04:50:56;98804.75;;;10.10;78.77
30614;BME280;17381;51.690;5.270;2023-03-14T04:53:53;98798.81;;;10.06;78.94
30614;BME280;17381;51.690;5.270;2023-03-14T04:56:26;98798.56;;;10.11;79.24
30614;BME280;17381;51.690;5.270;2023-03-14T04:58:55;98804.00;;;10.08;79.70
30614;BME280;17381;51.690;5.270;2023-03-14T05:01:24;98798.50;;;10.12;79.43
30614;BME280;17381;51.690;5.270;2023-03-14T05:04:21;98802.97;;;10.10;79.34
30614;BME280;17381;51.690;5.270;2023-03-14T05:07:23;98803.88;;;10.09;79.89
30614;BME280;17381;51.690;5.270;2023-03-14T05:10:10;98802.97;;;10.10;79.70
30614;BME280;17381;51.690;5.270;2023-03-14T05:13:15;98772.72;;;9.89;80.42
30614;BME280;17381;51.690;5.270;2023-03-14T05:16:07;98790.38;;;10.01;80.59
30614;BME280;17381;51.690;5.270;2023-03-14T05:19:04;98811.75;;;10.09;81.05
30614;BME280;17381;51.690;5.270;2023-03-14T05:21:48;98809.91;;;10.11;80.66
30614;BME280;17381;51.690;5.270;2023-03-14T05:24:33;98792.81;;;10.04;81.08
30614;BME280;17381;51.690;5.270;2023-03-14T05:27:16;98796.38;;;10.03;82.31
30614;BME280;17381;51.690;5.270;2023-03-14T05:30:00;98795.19;;;9.93;82.72
30614;BME280;17381;51.690;5.270;2023-03-14T05:32:58;98791.16;;;9.87;83.74
30614;BME280;17381;51.690;5.270;2023-03-14T05:35:59;98746.84;;;9.51;84.46
30614;BME280;17381;51.690;5.270;2023-03-14T05:38:57;98790.34;;;9.71;85.38
30614;BME280;17381;51.690;5.270;2023-03-14T05:41:48;98791.34;;;9.68;85.84
30614;BME280;17381;51.690;5.270;2023-03-14T05:44:46;98786.34;;;9.64;86.46
30614;BME280;17381;51.690;5.270;2023-03-14T05:47:36;98795.22;;;9.61;86.20
30614;BME280;17381;51.690;5.270;2023-03-14T05:50:27;98786.41;;;9.62;86.76
30614;BME280;17381;51.690;5.270;2023-03-14T05:53:22;98729.69;;;9.29;86.64
30614;BME280;17381;51.690;5.270;2023-03-14T05:55:54;98778.72;;;9.59;86.99
30614;BME280;17381;51.690;5.270;2023-03-14T05:58:48;98750.91;;;9.41;87.32
30614;BME280;17381;51.690;5.270;2023-03-14T06:01:44;98799.28;;;9.67;86.91
30614;BME280;17381;51.690;5.270;2023-03-14T06:04:24;98776.44;;;9.53;87.43
30614;BME280;17381;51.690;5.270;2023-03-14T06:06:57;98797.59;;;9.66;87.61
30614;BME280;17381;51.690;5.270;2023-03-14T06:09:24;98774.75;;;9.52;88.21
30614;BME280;17381;51.690;5.270;2023-03-14T06:12:01;98768.31;;;9.42;89.38
30614;BME280;17381;51.690;5.270;2023-03-14T06:14:41;98803.16;;;9.44;90.32
30614;BME280;17381;51.690;5.270;2023-03-14T06:17:15;98790.06;;;9.44;90.67
30614;BME280;17381;51.690;5.270;2023-03-14T06:20:05;98779.31;;;9.32;91.08
30614;BME280;17381;51.690;5.270;2023-03-14T06:22:36;98790.22;;;9.41;91.54
30614;BME280;17381;51.690;5.270;2023-03-14T06:25:11;98799.78;;;9.42;91.86
30614;BME280;17381;51.690;5.270;2023-03-14T06:27:57;98802.75;;;9.35;92.58
30614;BME280;17381;51.690;5.270;2023-03-14T06:30:29;98813.81;;;9.41;92.46
30614;BME280;17381;51.690;5.270;2023-03-14T06:33:05;98807.75;;;9.40;93.71
30614;BME280;17381;51.690;5.270;2023-03-14T06:35:45;98811.88;;;9.44;93.64
30614;BME280;17381;51.690;5.270;2023-03-14T06:38:15;98802.22;;;9.45;93.86
30614;BME280;17381;51.690;5.270;2023-03-14T06:40:50;98806.56;;;9.46;94.61
30614;BME280;17381;51.690;5.270;2023-03-14T06:43:40;98809.19;;;9.46;94.74
30614;BME280;17381;51.690;5.270;2023-03-14T06:46:11;98793.69;;;9.41;95.38
30614;BME280;17381;51.690;5.270;2023-03-14T06:48:41;98799.59;;;9.45;95.76
30614;BME280;17381;51.690;5.270;2023-03-14T06:51:16;98803.16;;;9.44;95.35
30614;BME280;17381;51.690;5.270;2023-03-14T06:53:46;98813.41;;;9.48;96.13
30614;BME280;17381;51.690;5.270;2023-03-14T06:56:15;98813.31;;;9.50;96.05
30614;BME280;17381;51.690;5.270;2023-03-14T06:58:56;98851.81;;;9.49;96.66
30614;BME280;17381;51.690;5.270;2023-03-14T07:01:36;98891.25;;;9.48;95.69
30614;BME280;17381;51.690;5.270;2023-03-14T07:04:19;98912.09;;;9.16;92.44
30614;BME280;17381;51.690;5.270;2023-03-14T07:06:54;98922.44;;;8.84;91.10
30614;BME280;17381;51.690;5.270;2023-03-14T07:09:46;98930.28;;;8.67;91.67
30614;BME280;17381;51.690;5.270;2023-03-14T07:12:29;98945.03;;;8.50;92.15
30614;BME280;17381;51.690;5.270;2023-03-14T07:15:14;98957.00;;;8.37;91.71
30614;BME280;17381;51.690;5.270;2023-03-14T07:18:00;98966.47;;;8.21;91.67
30614;BME280;17381;51.690;5.270;2023-03-14T07:20:39;98961.81;;;8.08;91.69
30614;BME280;17381;51.690;5.270;2023-03-14T07:23:38;98988.25;;;8.02;92.13
30614;BME280;17381;51.690;5.270;2023-03-14T07:26:29;98981.88;;;7.89;91.98
30614;BME280;17381;51.690;5.270;2023-03-14T07:29:10;98992.28;;;7.91;92.47
30614;BME280;17381;51.690;5.270;2023-03-14T07:32:03;99007.34;;;7.85;92.86
30614;BME280;17381;51.690;5.270;2023-03-14T07:34:41;99015.53;;;7.78;92.71
30614;BME280;17381;51.690;5.270;2023-03-14T07:37:23;99022.44;;;7.79;93.65
30614;BME280;17381;51.690;5.270;2023-03-14T07:40:04;99026.13;;;7.75;93.90
30614;BME280;17381;51.690;5.270;2023-03-14T07:43:04;98990.72;;;7.47;94.25
30614;BME280;17381;51.690;5.270;2023-03-14T07:46:05;99053.81;;;7.79;94.52
30614;BME280;17381;51.690;5.270;2023-03-14T07:48:48;99066.56;;;7.86;94.79
30614;BME280;17381;51.690;5.270;2023-03-14T07:51:26;99088.16;;;7.92;94.79
30614;BME280;17381;51.690;5.270;2023-03-14T07:54:09;99091.75;;;7.89;94.61
30614;BME280;17381;51.690;5.270;2023-03-14T07:56:47;99101.31;;;7.90;94.86
30614;BME280;17381;51.690;5.270;2023-03-14T07:59:14;99104.63;;;7.94;94.97
30614;BME280;17381;51.690;5.270;2023-03-14T08:02:02;99108.81;;;7.98;94.72
30614;BME280;17381;51.690;5.270;2023-03-14T08:04:56;99103.13;;;7.88;94.46
30614;BME280;17381;51.690;5.270;2023-03-14T08:07:39;99129.53;;;8.02;94.17
30614;BME280;17381;51.690;5.270;2023-03-14T08:10:39;99121.16;;;7.94;94.47
30614;BME280;17381;51.690;5.270;2023-03-14T08:13:19;99151.38;;;8.01;93.31
30614;BME280;17381;51.690;5.270;2023-03-14T08:16:31;99171.38;;;8.02;93.32
30614;BME280;17381;51.690;5.270;2023-03-14T08:19:23;99174.88;;;8.03;93.78
30614;BME280;17381;51.690;5.270;2023-03-14T08:22:04;99183.91;;;8.16;93.68
30614;BME280;17381;51.690;5.270;2023-03-14T08:24:50;99194.38;;;8.16;92.58
30614;BME280;17381;51.690;5.270;2023-03-14T08:27:28;99205.03;;;8.12;92.32
30614;BME280;17381;51.690;5.270;2023-03-14T08:33:04;99182.13;;;7.96;92.26
30614;BME280;17381;51.690;5.270;2023-03-14T08:36:05;99229.28;;;8.15;91.36
30614;BME280;17381;51.690;5.270;2023-03-14T08:39:05;99235.00;;;8.25;91.73
30614;BME280;17381;51.690;5.270;2023-03-14T08:41:50;99239.25;;;8.27;90.76
30614;BME280;17381;51.690;5.270;2023-03-14T08:44:39;99255.00;;;8.26;90.07
30614;BME280;17381;51.690;5.270;2023-03-14T08:47:30;99264.88;;;8.19;90.33
30614;BME280;17381;51.690;5.270;2023-03-14T08:50:14;99279.97;;;8.13;90.39
30614;BME280;17381;51.690;5.270;2023-03-14T08:52:54;99311.94;;;7.99;89.31
30614;BME280;17381;51.690;5.270;2023-03-14T08:55:43;99320.22;;;7.88;88.74
30614;BME280;17381;51.690;5.270;2023-03-14T08:58:28;99317.78;;;7.83;89.54
30614;BME280;17381;51.690;5.270;2023-03-14T09:01:16;99329.94;;;7.84;88.96
30614;BME280;17381;51.690;5.270;2023-03-14T09:03:53;99337.06;;;7.81;89.75
30614;BME280;17381;51.690;5.270;2023-03-14T09:06:28;99353.47;;;7.84;89.96
30614;BME280;17381;51.690;5.270;2023-03-14T09:09:10;99358.66;;;7.86;90.09
30614;BME280;17381;51.690;5.270;2023-03-14T09:12:02;99386.75;;;7.81;88.90
30614;BME280;17381;51.690;5.270;2023-03-14T09:14:43;99393.66;;;7.60;87.96
30614;BME280;17381;51.690;5.270;2023-03-14T09:17:28;99418.59;;;7.45;86.32
30614;BME280;17381;51.690;5.270;2023-03-14T09:20:23;99430.13;;;7.39;86.81
30614;BME280;17381;51.690;5.270;2023-03-14T09:23:07;99455.72;;;7.30;85.73
30614;BME280;17381;51.690;5.270;2023-03-14T09:25:50;99466.56;;;7.19;85.46
30614;BME280;17381;51.690;5.270;2023-03-14T09:28:27;99474.50;;;7.16;85.81
30614;BME280;17381;51.690;5.270;2023-03-14T09:31:10;99499.16;;;7.07;85.43
30614;BME280;17381;51.690;5.270;2023-03-14T09:33:40;99508.16;;;6.98;85.08
30614;BME280;17381;51.690;5.270;2023-03-14T09:36:36;99515.09;;;6.99;84.14
30614;BME280;17381;51.690;5.270;2023-03-14T09:39:13;99517.44;;;7.07;83.54
30614;BME280;17381;51.690;5.270;2023-03-14T09:41:52;99533.03;;;7.37;84.03
30614;BME280;17381;51.690;5.270;2023-03-14T09:44:37;99538.47;;;7.56;83.89
30614;BME280;17381;51.690;5.270;2023-03-14T09:47:19;99552.28;;;7.84;83.35
30614;BME280;17381;51.690;5.270;2023-03-14T09:50:00;99547.41;;;7.99;82.13
30614;BME280;17381;51.690;5.270;2023-03-14T09:52:46;99574.31;;;8.02;81.04
30614;BME280;17381;51.690;5.270;2023-03-14T09:55:20;99578.78;;;8.00;80.90
30614;BME280;17381;51.690;5.270;2023-03-14T09:58:02;99550.97;;;7.73;79.36
30614;BME280;17381;51.690;5.270;2023-03-14T10:00:42;99601.28;;;8.04;79.91
30614;BME280;17381;51.690;5.270;2023-03-14T10:03:31;99614.44;;;8.03;77.34
30614;BME280;17381;51.690;5.270;2023-03-14T10:06:14;99625.88;;;8.00;76.59
30614;BME280;17381;51.690;5.270;2023-03-14T10:09:01;99627.59;;;8.00;77.49
30614;BME280;17381;51.690;5.270;2023-03-14T10:11:41;99616.63;;;7.90;77.45
30614;BME280;17381;51.690;5.270;2023-03-14T10:14:47;99656.06;;;8.09;76.66
30614;BME280;17381;51.690;5.270;2023-03-14T10:17:18;99662.22;;;8.08;76.00
30614;BME280;17381;51.690;5.270;2023-03-14T10:19:55;99682.09;;;8.14;75.70
30614;BME280;17381;51.690;5.270;2023-03-14T10:22:34;99692.69;;;8.11;76.27
30614;BME280;17381;51.690;5.270;2023-03-14T10:25:19;99670.75;;;7.88;75.49
30614;BME280;17381;51.690;5.270;2023-03-14T10:28:01;99713.69;;;8.07;75.50
30614;BME280;17381;51.690;5.270;2023-03-14T10:30:51;99724.84;;;8.13;75.67
30614;BME280;17381;51.690;5.270;2023-03-14T10:36:00;99753.47;;;8.19;76.01
30614;BME280;17381;51.690;5.270;2023-03-14T10:38:30;99766.13;;;8.04;76.32
30614;BME280;17381;51.690;5.270;2023-03-14T10:41:14;99780.72;;;8.12;76.11
30614;BME280;17381;51.690;5.270;2023-03-14T10:43:45;99771.13;;;8.64;76.49
30614;BME280;17381;51.690;5.270;2023-03-14T10:46:23;99792.59;;;9.46;75.30
30614;BME280;17381;51.690;5.270;2023-03-14T10:49:28;99791.41;;;9.76;73.33
30614;BME280;17381;51.690;5.270;2023-03-14T10:52:00;99755.28;;;9.61;73.31
30614;BME280;17381;51.690;5.270;2023-03-14T10:54:29;99807.56;;;9.88;72.78
30614;BME280;17381;51.690;5.270;2023-03-14T10:57:00;99815.00;;;9.98;71.18
30614;BME280;17381;51.690;5.270;2023-03-14T10:59:37;99831.19;;;9.88;70.78
30614;BME280;17381;51.690;5.270;2023-03-14T11:02:39;99847.91;;;9.63;70.98
30614;BME280;17381;51.690;5.270;2023-03-14T11:07:56;99877.06;;;9.07;71.38
30614;BME280;17381;51.690;5.270;2023-03-14T11:10:34;99878.84;;;8.55;72.54
30614;BME280;17381;51.690;5.270;2023-03-14T11:13:30;99917.06;;;8.32;73.25
30614;BME280;17381;51.690;5.270;2023-03-14T11:25:04;99948.16;;;7.85;77.57
30614;BME280;17381;51.690;5.270;2023-03-14T11:27:51;99960.25;;;8.17;77.61
30614;BME280;17381;51.690;5.270;2023-03-14T11:30:45;99960.41;;;8.42;76.23
30614;BME280;17381;51.690;5.270;2023-03-14T11:33:29;99948.59;;;8.57;77.36
30614;BME280;17381;51.690;5.270;2023-03-14T11:36:08;99965.06;;;8.61;74.46
30614;BME280;17381;51.690;5.270;2023-03-14T11:38:47;99977.53;;;8.52;74.09
30614;BME280;17381;51.690;5.270;2023-03-14T11:41:58;99991.94;;;8.39;72.36
30614;BME280;17381;51.690;5.270;2023-03-14T11:44:40;100000.22;;;8.24;73.64
30614;BME280;17381;51.690;5.270;2023-03-14T11:47:34;100010.91;;;8.16;73.24
30614;BME280;17381;51.690;5.270;2023-03-14T11:50:25;100026.03;;;8.05;73.44
30614;BME280;17381;51.690;5.270;2023-03-14T11:53:09;100027.22;;;7.95;72.13
30614;BME280;17381;51.690;5.270;2023-03-14T11:55:50;100040.34;;;7.93;71.50
30614;BME280;17381;51.690;5.270;2023-03-14T11:58:25;100044.44;;;8.03;71.78
30614;BME280;17381;51.690;5.270;2023-03-14T12:01:09;100043.38;;;8.39;72.37
30614;BME280;17381;51.690;5.270;2023-03-14T12:06:20;100043.22;;;9.79;72.87
30614;BME280;17381;51.690;5.270;2023-03-14T12:08:54;100058.22;;;10.48;70.00
30614;BME280;17381;51.690;5.270;2023-03-14T12:11:56;100057.28;;;11.37;65.81
30614;BME280;17381;51.690;5.270;2023-03-14T12:14:33;100061.06;;;11.52;63.98
30614;BME280;17381;51.690;5.270;2023-03-14T12:22:54;100042.53;;;13.27;60.37
30614;BME280;17381;51.690;5.270;2023-03-14T12:25:32;100079.69;;;13.92;58.99
30614;BME280;17381;51.690;5.270;2023-03-14T12:28:16;100057.97;;;14.36;56.57
30614;BME280;17381;51.690;5.270;2023-03-14T12:30:52;100078.63;;;13.79;55.18
30614;BME280;17381;51.690;5.270;2023-03-14T12:33:27;100079.94;;;13.16;53.94
30614;BME280;17381;51.690;5.270;2023-03-14T12:36:18;100065.03;;;13.15;53.73
30614;BME280;17381;51.690;5.270;2023-03-14T12:39:08;100096.22;;;13.95;51.37
30614;BME280;17381;51.690;5.270;2023-03-14T12:42:05;100100.69;;;14.93;45.97
30614;BME280;17381;51.690;5.270;2023-03-14T12:49:51;100113.75;;;16.47;44.43
30614;BME280;17381;51.690;5.270;2023-03-14T12:52:22;100111.59;;;16.95;41.62
30614;BME280;17381;51.690;5.270;2023-03-14T12:55:15;100112.25;;;17.53;40.41
30614;BME280;17381;51.690;5.270;2023-03-14T12:57:57;100115.88;;;17.65;36.34
30614;BME280;17381;51.690;5.270;2023-03-14T13:00:33;100121.75;;;17.70;38.40
30614;BME280;17381;51.690;5.270;2023-03-14T13:04:07;100136.97;;;17.41;35.23
30614;BME280;17381;51.690;5.270;2023-03-14T13:06:53;100149.72;;;17.36;37.92
30614;BME280;17381;51.690;5.270;2023-03-14T13:12:03;100169.06;;;16.82;37.92
30614;BME280;17381;51.690;5.270;2023-03-14T13:14:43;100173.97;;;16.31;37.23
30614;BME280;17381;51.690;5.270;2023-03-14T13:17:14;100143.72;;;16.05;38.54
30614;BME280;17381;51.690;5.270;2023-03-14T13:19:50;100140.91;;;16.22;37.26
30614;BME280;17381;51.690;5.270;2023-03-14T13:22:27;100183.56;;;17.05;39.69
30614;BME280;17381;51.690;5.270;2023-03-14T13:25:06;100189.28;;;17.40;38.39
30614;BME280;17381;51.690;5.270;2023-03-14T13:27:44;100190.69;;;17.32;36.69
30614;BME280;17381;51.690;5.270;2023-03-14T13:30:22;100202.28;;;17.45;36.94
30614;BME280;17381;51.690;5.270;2023-03-14T13:32:55;100206.81;;;17.02;36.21
30614;BME280;17381;51.690;5.270;2023-03-14T13:35:41;100218.44;;;17.55;36.30
30614;BME280;17381;51.690;5.270;2023-03-14T13:38:24;100214.09;;;18.08;36.35
30614;BME280;17381;51.690;5.270;2023-03-14T13:40:59;100219.69;;;18.56;36.83
30614;BME280;17381;51.690;5.270;2023-03-14T13:43:43;100224.78;;;18.46;34.28
30614;BME280;17381;51.690;5.270;2023-03-14T13:46:26;100231.38;;;18.66;35.11
30614;BME280;17381;51.690;5.270;2023-03-14T13:49:09;100246.41;;;18.55;35.49
30614;BME280;17381;51.690;5.270;2023-03-14T13:51:44;100241.03;;;18.16;35.87
30614;BME280;17381;51.690;5.270;2023-03-14T13:54:18;100250.09;;;17.45;33.56
30614;BME280;17381;51.690;5.270;2023-03-14T13:56:48;100235.41;;;16.68;37.30
30614;BME280;17381;51.690;5.270;2023-03-14T13:59:31;100266.84;;;16.15;36.24
30614;BME280;17381;51.690;5.270;2023-03-14T14:02:14;100280.81;;;15.55;36.49
30614;BME280;17381;51.690;5.270;2023-03-14T14:04:41;100290.59;;;15.05;37.33
30614;BME280;17381;51.690;5.270;2023-03-14T14:07:13;100306.22;;;14.77;36.26
30614;BME280;17381;51.690;5.270;2023-03-14T14:09:57;100317.59;;;14.43;37.54
30614;BME280;17381;51.690;5.270;2023-03-14T14:13:01;100324.31;;;14.50;38.38
30614;BME280;17381;51.690;5.270;2023-03-14T14:15:42;100335.66;;;14.52;35.57
30614;BME280;17381;51.690;5.270;2023-03-14T14:18:12;100340.09;;;14.34;36.21
30614;BME280;17381;51.690;5.270;2023-03-14T14:20:57;100355.59;;;14.05;36.52
30614;BME280;17381;51.690;5.270;2023-03-14T14:23:29;100327.56;;;14.20;37.33
30614;BME280;17381;51.690;5.270;2023-03-14T14:26:04;100385.34;;;14.45;36.13
30614;BME280;17381;51.690;5.270;2023-03-14T14:28:34;100366.25;;;13.85;36.15
30614;BME280;17381;51.690;5.270;2023-03-14T14:31:18;100378.56;;;13.27;38.25
30614;BME280;17381;51.690;5.270;2023-03-14T14:36:28;100391.00;;;12.40;39.49
30614;BME280;17381;51.690;5.270;2023-03-14T14:39:10;100401.91;;;12.09;40.20
30614;BME280;17381;51.690;5.270;2023-03-14T14:41:44;100416.06;;;11.83;39.69
30614;BME280;17381;51.690;5.270;2023-03-14T14:44:38;100415.81;;;11.42;40.37
30614;BME280;17381;51.690;5.270;2023-03-14T14:47:24;100415.69;;;11.22;40.82
30614;BME280;17381;51.690;5.270;2023-03-14T14:49:52;100434.50;;;11.09;40.16
30614;BME280;17381;51.690;5.270;2023-03-14T14:52:56;100457.00;;;10.93;41.68
30614;BME280;17381;51.690;5.270;2023-03-14T14:55:42;100463.81;;;10.72;42.38
30614;BME280;17381;51.690;5.270;2023-03-14T14:58:36;100469.44;;;10.61;42.78
30614;BME280;17381;51.690;5.270;2023-03-14T15:01:15;100481.31;;;10.45;43.89